sensor_id;sensor_type;location;lat;lon;timestamp;P1;durP1;ratioP1;P2;durP2;ratioP2
17953;SDS011;9102;53.548;9.926;2023-10-09T00:01:02;6.95;;;2.65;;
17953;SDS011;9102;53.548;9.926;2023-10-09T00:03:45;6.05;;;2.25;;
17953;SDS011;9102;53.548;9.926;2023-10-09T00:06:16;6.40;;;2.45;;
17953;SDS011;9102;53.548;9.926;2023-10-09T00:08:50;5.68;;;2.55;;
17953;SDS011;9102;53.548;9.926;2023-10-09T00:11:20;5.45;;;2.25;;
17953;SDS011;9102;53.548;9.926;2023-10-09T00:13:51;3.78;;;2.15;;
17953;SDS011;9102;53.548;9.926;2023-10-09T00:16:22;4.70;;;2.42;;
17953;SDS011;9102;53.548;9.926;2023-10-09T00:18:58;6.13;;;2.40;;
17953;SDS011;9102;53.548;9.926;2023-10-09T00:21:38;7.07;;;2.28;;
17953;SDS011;9102;53.548;9.926;2023-10-09T00:24:07;4.65;;;2.30;;
17953;SDS011;9102;53.548;9.926;2023-10-09T00:26:38;4.55;;;1.67;;
17953;SDS011;9102;53.548;9.926;2023-10-09T00:29:10;4.32;;;2.35;;
17953;SDS011;9102;53.548;9.926;2023-10-09T00:31:40;4.28;;;2.10;;
17953;SDS011;9102;53.548;9.926;2023-10-09T00:34:15;10.13;;;2.50;;
17953;SDS011;9102;53.548;9.926;2023-10-09T00:36:44;5.03;;;2.00;;
17953;SDS011;9102;53.548;9.926;2023-10-09T00:39:17;6.05;;;2.17;;
17953;SDS011;9102;53.548;9.926;2023-10-09T00:41:59;8.68;;;2.20;;
17953;SDS011;9102;53.548;9.926;2023-10-09T00:44:27;10.63;;;2.30;;
17953;SDS011;9102;53.548;9.926;2023-10-09T00:47:03;8.80;;;2.35;;
17953;SDS011;9102;53.548;9.926;2023-10-09T00:49:45;10.50;;;3.10;;
17953;SDS011;9102;53.548;9.926;2023-10-09T00:52:14;12.10;;;3.33;;
17953;SDS011;9102;53.548;9.926;2023-10-09T00:54:52;10.40;;;3.00;;
17953;SDS011;9102;53.548;9.926;2023-10-09T00:57:26;5.78;;;2.63;;
17953;SDS011;9102;53.548;9.926;2023-10-09T00:59:57;7.35;;;2.95;;
17953;SDS011;9102;53.548;9.926;2023-10-09T01:02:38;9.23;;;3.47;;
17953;SDS011;9102;53.548;9.926;2023-10-09T01:05:08;9.32;;;2.85;;
17953;SDS011;9102;53.548;9.926;2023-10-09T01:07:44;10.60;;;3.88;;
17953;SDS011;9102;53.548;9.926;2023-10-09T01:10:14;10.88;;;4.28;;
17953;SDS011;9102;53.548;9.926;2023-10-09T01:12:43;15.05;;;4.68;;
17953;SDS011;9102;53.548;9.926;2023-10-09T01:15:11;11.82;;;4.00;;
17953;SDS011;9102;53.548;9.926;2023-10-09T01:18:01;12.70;;;3.38;;
17953;SDS011;9102;53.548;9.926;2023-10-09T01:20:32;19.17;;;4.85;;
17953;SDS011;9102;53.548;9.926;2023-10-09T01:23:08;12.40;;;4.07;;
17953;SDS011;9102;53.548;9.926;2023-10-09T01:25:36;10.68;;;3.28;;
17953;SDS011;9102;53.548;9.926;2023-10-09T01:28:09;16.88;;;3.53;;
17953;SDS011;9102;53.548;9.926;2023-10-09T01:30:41;10.60;;;4.13;;
17953;SDS011;9102;53.548;9.926;2023-10-09T01:33:08;6.80;;;3.20;;
17953;SDS011;9102;53.548;9.926;2023-10-09T01:35:47;8.55;;;3.10;;
17953;SDS011;9102;53.548;9.926;2023-10-09T01:38:18;8.20;;;2.90;;
17953;SDS011;9102;53.548;9.926;2023-10-09T01:40:55;9.13;;;3.28;;
17953;SDS011;9102;53.548;9.926;2023-10-09T01:43:29;9.65;;;2.88;;
17953;SDS011;9102;53.548;9.926;2023-10-09T01:45:59;6.47;;;2.58;;
17953;SDS011;9102;53.548;9.926;2023-10-09T01:48:26;6.78;;;3.42;;
17953;SDS011;9102;53.548;9.926;2023-10-09T01:50:54;20.83;;;3.38;;
17953;SDS011;9102;53.548;9.926;2023-10-09T01:53:22;9.13;;;2.47;;
17953;SDS011;9102;53.548;9.926;2023-10-09T01:55:54;7.35;;;2.63;;
17953;SDS011;9102;53.548;9.926;2023-10-09T01:58:21;8.48;;;2.80;;
17953;SDS011;9102;53.548;9.926;2023-10-09T02:00:57;16.70;;;2.83;;
17953;SDS011;9102;53.548;9.926;2023-10-09T02:03:27;6.65;;;2.40;;
17953;SDS011;9102;53.548;9.926;2023-10-09T02:05:56;7.60;;;2.58;;
17953;SDS011;9102;53.548;9.926;2023-10-09T02:08:26;5.35;;;2.22;;
17953;SDS011;9102;53.548;9.926;2023-10-09T02:11:01;5.22;;;2.33;;
17953;SDS011;9102;53.548;9.926;2023-10-09T02:13:28;7.32;;;2.40;;
17953;SDS011;9102;53.548;9.926;2023-10-09T02:15:57;5.57;;;2.60;;
17953;SDS011;9102;53.548;9.926;2023-10-09T02:18:38;8.52;;;2.55;;
17953;SDS011;9102;53.548;9.926;2023-10-09T02:21:18;7.22;;;2.50;;
17953;SDS011;9102;53.548;9.926;2023-10-09T02:23:59;6.53;;;2.63;;
17953;SDS011;9102;53.548;9.926;2023-10-09T02:26:30;8.55;;;2.78;;
17953;SDS011;9102;53.548;9.926;2023-10-09T02:29:19;6.15;;;3.10;;
17953;SDS011;9102;53.548;9.926;2023-10-09T02:31:49;5.50;;;2.83;;
17953;SDS011;9102;53.548;9.926;2023-10-09T02:34:18;11.57;;;3.33;;
17953;SDS011;9102;53.548;9.926;2023-10-09T02:36:47;8.50;;;3.00;;
17953;SDS011;9102;53.548;9.926;2023-10-09T02:39:23;10.73;;;3.25;;
17953;SDS011;9102;53.548;9.926;2023-10-09T02:41:51;8.35;;;2.55;;
17953;SDS011;9102;53.548;9.926;2023-10-09T02:44:25;5.25;;;2.80;;
17953;SDS011;9102;53.548;9.926;2023-10-09T02:46:52;8.48;;;3.08;;
17953;SDS011;9102;53.548;9.926;2023-10-09T02:49:22;5.00;;;2.60;;
17953;SDS011;9102;53.548;9.926;2023-10-09T02:51:49;4.05;;;2.63;;
17953;SDS011;9102;53.548;9.926;2023-10-09T02:54:18;7.57;;;2.85;;
17953;SDS011;9102;53.548;9.926;2023-10-09T02:56:54;5.38;;;2.88;;
17953;SDS011;9102;53.548;9.926;2023-10-09T02:59:30;6.90;;;2.90;;
17953;SDS011;9102;53.548;9.926;2023-10-09T03:01:57;10.23;;;3.20;;
17953;SDS011;9102;53.548;9.926;2023-10-09T03:04:25;10.85;;;2.88;;
17953;SDS011;9102;53.548;9.926;2023-10-09T03:06:56;6.93;;;2.90;;
17953;SDS011;9102;53.548;9.926;2023-10-09T03:09:23;7.13;;;2.90;;
17953;SDS011;9102;53.548;9.926;2023-10-09T03:11:54;7.22;;;3.13;;
17953;SDS011;9102;53.548;9.926;2023-10-09T03:14:27;10.00;;;3.33;;
17953;SDS011;9102;53.548;9.926;2023-10-09T03:16:54;5.13;;;3.17;;
17953;SDS011;9102;53.548;9.926;2023-10-09T03:19:22;9.38;;;2.85;;
17953;SDS011;9102;53.548;9.926;2023-10-09T03:21:51;7.97;;;2.60;;
17953;SDS011;9102;53.548;9.926;2023-10-09T03:24:18;9.13;;;3.03;;
17953;SDS011;9102;53.548;9.926;2023-10-09T03:26:47;5.00;;;3.10;;
17953;SDS011;9102;53.548;9.926;2023-10-09T03:29:16;8.25;;;2.67;;
17953;SDS011;9102;53.548;9.926;2023-10-09T03:31:44;10.73;;;2.70;;
17953;SDS011;9102;53.548;9.926;2023-10-09T03:34:11;9.80;;;2.67;;
17953;SDS011;9102;53.548;9.926;2023-10-09T03:36:39;7.20;;;3.15;;
17953;SDS011;9102;53.548;9.926;2023-10-09T03:39:07;6.18;;;2.85;;
17953;SDS011;9102;53.548;9.926;2023-10-09T03:41:49;8.40;;;3.08;;
17953;SDS011;9102;53.548;9.926;2023-10-09T03:44:17;5.75;;;2.53;;
17953;SDS011;9102;53.548;9.926;2023-10-09T03:46:44;8.38;;;2.85;;
17953;SDS011;9102;53.548;9.926;2023-10-09T03:49:11;6.72;;;2.90;;
17953;SDS011;9102;53.548;9.926;2023-10-09T03:51:47;5.97;;;2.38;;
17953;SDS011;9102;53.548;9.926;2023-10-09T03:54:14;6.68;;;2.53;;
17953;SDS011;9102;53.548;9.926;2023-10-09T03:56:45;5.25;;;2.42;;
17953;SDS011;9102;53.548;9.926;2023-10-09T03:59:15;6.57;;;3.03;;
17953;SDS011;9102;53.548;9.926;2023-10-09T04:01:52;6.90;;;2.53;;
17953;SDS011;9102;53.548;9.926;2023-10-09T04:04:19;7.05;;;2.58;;
17953;SDS011;9102;53.548;9.926;2023-10-09T04:06:48;4.03;;;2.33;;
17953;SDS011;9102;53.548;9.926;2023-10-09T04:09:16;5.90;;;2.75;;
17953;SDS011;9102;53.548;9.926;2023-10-09T04:12:00;6.20;;;2.45;;
17953;SDS011;9102;53.548;9.926;2023-10-09T04:14:45;5.82;;;2.40;;
17953;SDS011;9102;53.548;9.926;2023-10-09T04:17:21;6.65;;;2.30;;
17953;SDS011;9102;53.548;9.926;2023-10-09T04:20:01;6.80;;;2.65;;
17953;SDS011;9102;53.548;9.926;2023-10-09T04:22:46;6.10;;;2.58;;
17953;SDS011;9102;53.548;9.926;2023-10-09T04:25:16;4.45;;;2.55;;
17953;SDS011;9102;53.548;9.926;2023-10-09T04:27:50;11.43;;;2.75;;
17953;SDS011;9102;53.548;9.926;2023-10-09T04:30:25;5.72;;;2.67;;
17953;SDS011;9102;53.548;9.926;2023-10-09T04:32:54;8.02;;;2.60;;
17953;SDS011;9102;53.548;9.926;2023-10-09T04:35:25;7.47;;;3.08;;
17953;SDS011;9102;53.548;9.926;2023-10-09T04:37:56;7.53;;;2.83;;
17953;SDS011;9102;53.548;9.926;2023-10-09T04:40:30;5.97;;;3.15;;
17953;SDS011;9102;53.548;9.926;2023-10-09T04:43:13;5.80;;;2.83;;
17953;SDS011;9102;53.548;9.926;2023-10-09T04:45:45;6.63;;;2.38;;
17953;SDS011;9102;53.548;9.926;2023-10-09T04:48:33;5.57;;;2.10;;
17953;SDS011;9102;53.548;9.926;2023-10-09T04:51:03;7.72;;;2.10;;
17953;SDS011;9102;53.548;9.926;2023-10-09T04:53:53;3.92;;;1.85;;
17953;SDS011;9102;53.548;9.926;2023-10-09T04:56:25;4.60;;;2.10;;
17953;SDS011;9102;53.548;9.926;2023-10-09T04:58:56;6.35;;;2.22;;
17953;SDS011;9102;53.548;9.926;2023-10-09T05:01:28;4.55;;;1.90;;
17953;SDS011;9102;53.548;9.926;2023-10-09T05:04:04;7.28;;;2.08;;
17953;SDS011;9102;53.548;9.926;2023-10-09T05:06:51;11.02;;;2.22;;
17953;SDS011;9102;53.548;9.926;2023-10-09T05:09:23;4.78;;;2.10;;
17953;SDS011;9102;53.548;9.926;2023-10-09T05:11:51;3.97;;;1.92;;
17953;SDS011;9102;53.548;9.926;2023-10-09T05:14:40;5.78;;;2.20;;
17953;SDS011;9102;53.548;9.926;2023-10-09T05:17:12;5.57;;;2.88;;
17953;SDS011;9102;53.548;9.926;2023-10-09T05:19:43;6.50;;;2.20;;
17953;SDS011;9102;53.548;9.926;2023-10-09T05:22:42;4.63;;;2.42;;
17953;SDS011;9102;53.548;9.926;2023-10-09T05:25:21;4.32;;;2.10;;
17953;SDS011;9102;53.548;9.926;2023-10-09T05:28:16;4.15;;;1.88;;
17953;SDS011;9102;53.548;9.926;2023-10-09T05:30:56;6.53;;;2.00;;
17953;SDS011;9102;53.548;9.926;2023-10-09T05:33:31;4.82;;;2.05;;
17953;SDS011;9102;53.548;9.926;2023-10-09T05:36:02;6.85;;;2.40;;
17953;SDS011;9102;53.548;9.926;2023-10-09T05:38:56;7.53;;;2.13;;
17953;SDS011;9102;53.548;9.926;2023-10-09T05:41:42;7.70;;;2.38;;
17953;SDS011;9102;53.548;9.926;2023-10-09T05:44:24;4.68;;;2.25;;
17953;SDS011;9102;53.548;9.926;2023-10-09T05:47:08;7.18;;;2.20;;
17953;SDS011;9102;53.548;9.926;2023-10-09T05:49:55;5.47;;;1.95;;
17953;SDS011;9102;53.548;9.926;2023-10-09T05:52:45;4.95;;;2.33;;
17953;SDS011;9102;53.548;9.926;2023-10-09T05:55:31;7.70;;;2.55;;
17953;SDS011;9102;53.548;9.926;2023-10-09T05:58:18;5.47;;;2.63;;
17953;SDS011;9102;53.548;9.926;2023-10-09T06:01:28;8.52;;;2.67;;
17953;SDS011;9102;53.548;9.926;2023-10-09T06:04:21;6.10;;;3.00;;
17953;SDS011;9102;53.548;9.926;2023-10-09T06:06:58;6.35;;;3.08;;
17953;SDS011;9102;53.548;9.926;2023-10-09T06:09:37;10.50;;;3.92;;
17953;SDS011;9102;53.548;9.926;2023-10-09T06:12:17;12.63;;;3.28;;
17953;SDS011;9102;53.548;9.926;2023-10-09T06:14:59;8.65;;;3.25;;
17953;SDS011;9102;53.548;9.926;2023-10-09T06:17:44;6.82;;;3.60;;
17953;SDS011;9102;53.548;9.926;2023-10-09T06:20:15;6.40;;;4.47;;
17953;SDS011;9102;53.548;9.926;2023-10-09T06:23:14;9.70;;;4.32;;
17953;SDS011;9102;53.548;9.926;2023-10-09T06:26:05;10.48;;;4.63;;
17953;SDS011;9102;53.548;9.926;2023-10-09T06:28:49;8.68;;;4.32;;
17953;SDS011;9102;53.548;9.926;2023-10-09T06:31:37;7.07;;;3.38;;
17953;SDS011;9102;53.548;9.926;2023-10-09T06:34:17;6.18;;;3.92;;
17953;SDS011;9102;53.548;9.926;2023-10-09T06:36:46;9.20;;;3.95;;
17953;SDS011;9102;53.548;9.926;2023-10-09T06:39:18;9.20;;;4.05;;
17953;SDS011;9102;53.548;9.926;2023-10-09T06:42:04;6.88;;;4.10;;
17953;SDS011;9102;53.548;9.926;2023-10-09T06:44:55;11.80;;;5.53;;
17953;SDS011;9102;53.548;9.926;2023-10-09T06:47:21;10.48;;;4.78;;
17953;SDS011;9102;53.548;9.926;2023-10-09T06:49:49;10.35;;;4.95;;
17953;SDS011;9102;53.548;9.926;2023-10-09T06:52:29;13.27;;;4.93;;
17953;SDS011;9102;53.548;9.926;2023-10-09T06:55:10;9.60;;;4.35;;
17953;SDS011;9102;53.548;9.926;2023-10-09T06:57:45;7.70;;;4.32;;
17953;SDS011;9102;53.548;9.926;2023-10-09T07:00:14;12.60;;;4.28;;
17953;SDS011;9102;53.548;9.926;2023-10-09T07:02:55;9.38;;;4.18;;
17953;SDS011;9102;53.548;9.926;2023-10-09T07:05:22;10.13;;;4.28;;
17953;SDS011;9102;53.548;9.926;2023-10-09T07:07:56;7.68;;;4.28;;
17953;SDS011;9102;53.548;9.926;2023-10-09T07:10:43;10.43;;;4.93;;
17953;SDS011;9102;53.548;9.926;2023-10-09T07:13:29;9.52;;;4.97;;
17953;SDS011;9102;53.548;9.926;2023-10-09T07:16:02;26.08;;;6.88;;
17953;SDS011;9102;53.548;9.926;2023-10-09T07:18:46;11.43;;;5.88;;
17953;SDS011;9102;53.548;9.926;2023-10-09T07:21:19;12.77;;;5.93;;
17953;SDS011;9102;53.548;9.926;2023-10-09T07:23:53;12.05;;;4.90;;
17953;SDS011;9102;53.548;9.926;2023-10-09T07:26:22;9.45;;;5.05;;
17953;SDS011;9102;53.548;9.926;2023-10-09T07:29:03;8.73;;;4.30;;
17953;SDS011;9102;53.548;9.926;2023-10-09T07:31:47;8.25;;;4.05;;
17953;SDS011;9102;53.548;9.926;2023-10-09T07:34:22;8.00;;;4.60;;
17953;SDS011;9102;53.548;9.926;2023-10-09T07:37:17;8.13;;;4.30;;
17953;SDS011;9102;53.548;9.926;2023-10-09T07:39:47;8.60;;;3.92;;
17953;SDS011;9102;53.548;9.926;2023-10-09T07:42:22;7.70;;;4.93;;
17953;SDS011;9102;53.548;9.926;2023-10-09T07:44:59;8.45;;;4.60;;
17953;SDS011;9102;53.548;9.926;2023-10-09T07:47:37;8.02;;;4.18;;
17953;SDS011;9102;53.548;9.926;2023-10-09T07:50:26;7.63;;;4.35;;
17953;SDS011;9102;53.548;9.926;2023-10-09T07:53:03;8.88;;;5.07;;
17953;SDS011;9102;53.548;9.926;2023-10-09T07:55:43;7.68;;;5.05;;
17953;SDS011;9102;53.548;9.926;2023-10-09T07:58:19;11.38;;;5.22;;
17953;SDS011;9102;53.548;9.926;2023-10-09T08:00:51;7.25;;;4.32;;
17953;SDS011;9102;53.548;9.926;2023-10-09T08:03:40;10.35;;;4.57;;
17953;SDS011;9102;53.548;9.926;2023-10-09T08:06:10;10.00;;;4.68;;
17953;SDS011;9102;53.548;9.926;2023-10-09T08:08:51;7.13;;;4.50;;
17953;SDS011;9102;53.548;9.926;2023-10-09T08:11:32;8.70;;;4.90;;
17953;SDS011;9102;53.548;9.926;2023-10-09T08:14:25;8.35;;;5.70;;
17953;SDS011;9102;53.548;9.926;2023-10-09T08:17:11;8.95;;;5.90;;
17953;SDS011;9102;53.548;9.926;2023-10-09T08:19:40;7.75;;;5.28;;
17953;SDS011;9102;53.548;9.926;2023-10-09T08:22:23;12.07;;;5.80;;
17953;SDS011;9102;53.548;9.926;2023-10-09T08:25:15;11.13;;;5.10;;
17953;SDS011;9102;53.548;9.926;2023-10-09T08:27:57;12.55;;;7.68;;
17953;SDS011;9102;53.548;9.926;2023-10-09T08:30:44;10.45;;;5.95;;
17953;SDS011;9102;53.548;9.926;2023-10-09T08:33:17;9.23;;;5.60;;
17953;SDS011;9102;53.548;9.926;2023-10-09T08:36:02;8.07;;;5.10;;
17953;SDS011;9102;53.548;9.926;2023-10-09T08:38:29;9.80;;;6.80;;
17953;SDS011;9102;53.548;9.926;2023-10-09T08:41:06;11.85;;;7.93;;
17953;SDS011;9102;53.548;9.926;2023-10-09T08:43:42;13.18;;;7.20;;
17953;SDS011;9102;53.548;9.926;2023-10-09T08:46:16;10.30;;;6.75;;
17953;SDS011;9102;53.548;9.926;2023-10-09T08:48:49;10.05;;;7.00;;
17953;SDS011;9102;53.548;9.926;2023-10-09T08:51:19;9.30;;;6.18;;
17953;SDS011;9102;53.548;9.926;2023-10-09T08:53:46;12.13;;;7.63;;
17953;SDS011;9102;53.548;9.926;2023-10-09T08:56:13;13.27;;;6.90;;
17953;SDS011;9102;53.548;9.926;2023-10-09T08:58:47;9.13;;;6.20;;
17953;SDS011;9102;53.548;9.926;2023-10-09T09:01:16;11.02;;;5.80;;
17953;SDS011;9102;53.548;9.926;2023-10-09T09:03:45;9.85;;;5.43;;
17953;SDS011;9102;53.548;9.926;2023-10-09T09:06:14;9.32;;;5.55;;
17953;SDS011;9102;53.548;9.926;2023-10-09T09:08:41;8.75;;;5.75;;
17953;SDS011;9102;53.548;9.926;2023-10-09T09:11:10;6.75;;;5.30;;
17953;SDS011;9102;53.548;9.926;2023-10-09T09:13:39;7.47;;;5.05;;
17953;SDS011;9102;53.548;9.926;2023-10-09T09:16:16;9.35;;;5.80;;
17953;SDS011;9102;53.548;9.926;2023-10-09T09:18:52;10.05;;;6.05;;
17953;SDS011;9102;53.548;9.926;2023-10-09T09:21:27;13.05;;;6.38;;
17953;SDS011;9102;53.548;9.926;2023-10-09T09:23:56;11.30;;;6.90;;
17953;SDS011;9102;53.548;9.926;2023-10-09T09:26:35;14.68;;;7.20;;
17953;SDS011;9102;53.548;9.926;2023-10-09T09:29:04;10.65;;;5.80;;
17953;SDS011;9102;53.548;9.926;2023-10-09T09:31:32;11.02;;;6.32;;
17953;SDS011;9102;53.548;9.926;2023-10-09T09:34:03;8.75;;;5.60;;
17953;SDS011;9102;53.548;9.926;2023-10-09T09:36:39;9.70;;;6.13;;
17953;SDS011;9102;53.548;9.926;2023-10-09T09:39:18;9.75;;;6.75;;
17953;SDS011;9102;53.548;9.926;2023-10-09T09:41:54;10.50;;;7.45;;
17953;SDS011;9102;53.548;9.926;2023-10-09T09:44:23;12.70;;;7.53;;
17953;SDS011;9102;53.548;9.926;2023-10-09T09:46:55;14.93;;;7.95;;
17953;SDS011;9102;53.548;9.926;2023-10-09T09:49:25;11.15;;;7.88;;
17953;SDS011;9102;53.548;9.926;2023-10-09T09:51:58;10.70;;;7.20;;
17953;SDS011;9102;53.548;9.926;2023-10-09T09:54:28;14.80;;;7.57;;
17953;SDS011;9102;53.548;9.926;2023-10-09T09:56:59;11.85;;;6.30;;
17953;SDS011;9102;53.548;9.926;2023-10-09T09:59:33;7.43;;;5.30;;
17953;SDS011;9102;53.548;9.926;2023-10-09T10:02:15;8.57;;;4.95;;
17953;SDS011;9102;53.548;9.926;2023-10-09T10:04:47;7.43;;;5.35;;
17953;SDS011;9102;53.548;9.926;2023-10-09T10:07:23;6.50;;;5.00;;
17953;SDS011;9102;53.548;9.926;2023-10-09T10:09:54;9.43;;;5.68;;
17953;SDS011;9102;53.548;9.926;2023-10-09T10:18:25;8.13;;;5.20;;
17953;SDS011;9102;53.548;9.926;2023-10-09T10:23:55;7.65;;;5.03;;
17953;SDS011;9102;53.548;9.926;2023-10-09T10:26:31;12.07;;;5.57;;
17953;SDS011;9102;53.548;9.926;2023-10-09T10:29:15;12.18;;;5.55;;
17953;SDS011;9102;53.548;9.926;2023-10-09T10:31:51;5.97;;;3.30;;
17953;SDS011;9102;53.548;9.926;2023-10-09T10:34:20;7.82;;;3.78;;
17953;SDS011;9102;53.548;9.926;2023-10-09T10:36:48;6.78;;;4.00;;
17953;SDS011;9102;53.548;9.926;2023-10-09T10:39:19;7.90;;;3.83;;
17953;SDS011;9102;53.548;9.926;2023-10-09T10:42:00;5.97;;;3.50;;
17953;SDS011;9102;53.548;9.926;2023-10-09T10:44:31;5.28;;;3.53;;
17953;SDS011;9102;53.548;9.926;2023-10-09T10:47:03;5.90;;;3.72;;
17953;SDS011;9102;53.548;9.926;2023-10-09T10:49:42;7.53;;;3.83;;
17953;SDS011;9102;53.548;9.926;2023-10-09T10:52:19;6.38;;;3.10;;
17953;SDS011;9102;53.548;9.926;2023-10-09T10:54:48;5.00;;;3.20;;
17953;SDS011;9102;53.548;9.926;2023-10-09T10:57:29;4.07;;;2.70;;
17953;SDS011;9102;53.548;9.926;2023-10-09T11:00:18;4.07;;;2.85;;
17953;SDS011;9102;53.548;9.926;2023-10-09T11:02:59;6.55;;;3.70;;
17953;SDS011;9102;53.548;9.926;2023-10-09T11:05:39;4.00;;;2.95;;
17953;SDS011;9102;53.548;9.926;2023-10-09T11:08:09;3.85;;;2.90;;
17953;SDS011;9102;53.548;9.926;2023-10-09T11:10:37;3.28;;;2.40;;
17953;SDS011;9102;53.548;9.926;2023-10-09T11:13:20;3.13;;;2.67;;
17953;SDS011;9102;53.548;9.926;2023-10-09T11:15:58;4.53;;;3.15;;
17953;SDS011;9102;53.548;9.926;2023-10-09T11:18:39;4.50;;;2.97;;
17953;SDS011;9102;53.548;9.926;2023-10-09T11:21:12;4.65;;;3.45;;
17953;SDS011;9102;53.548;9.926;2023-10-09T11:23:56;4.68;;;2.95;;
17953;SDS011;9102;53.548;9.926;2023-10-09T11:26:48;5.13;;;3.20;;
17953;SDS011;9102;53.548;9.926;2023-10-09T11:29:20;5.05;;;3.65;;
17953;SDS011;9102;53.548;9.926;2023-10-09T11:32:06;5.47;;;3.30;;
17953;SDS011;9102;53.548;9.926;2023-10-09T11:34:34;7.50;;;3.70;;
17953;SDS011;9102;53.548;9.926;2023-10-09T11:37:03;7.20;;;4.18;;
17953;SDS011;9102;53.548;9.926;2023-10-09T11:39:37;5.57;;;3.72;;
17953;SDS011;9102;53.548;9.926;2023-10-09T11:42:17;5.60;;;3.70;;
17953;SDS011;9102;53.548;9.926;2023-10-09T11:45:00;5.03;;;3.40;;
17953;SDS011;9102;53.548;9.926;2023-10-09T11:47:44;4.32;;;3.47;;
17953;SDS011;9102;53.548;9.926;2023-10-09T11:50:19;6.35;;;4.13;;
17953;SDS011;9102;53.548;9.926;2023-10-09T11:52:56;5.07;;;3.90;;
17953;SDS011;9102;53.548;9.926;2023-10-09T11:55:40;5.97;;;3.95;;
17953;SDS011;9102;53.548;9.926;2023-10-09T11:58:15;5.25;;;3.83;;
17953;SDS011;9102;53.548;9.926;2023-10-09T12:00:48;4.88;;;3.33;;
17953;SDS011;9102;53.548;9.926;2023-10-09T12:03:22;4.47;;;3.47;;
17953;SDS011;9102;53.548;9.926;2023-10-09T12:05:53;4.10;;;3.20;;
17953;SDS011;9102;53.548;9.926;2023-10-09T12:08:21;4.82;;;3.60;;
17953;SDS011;9102;53.548;9.926;2023-10-09T12:10:51;5.65;;;3.72;;
17953;SDS011;9102;53.548;9.926;2023-10-09T12:13:21;4.97;;;3.60;;
17953;SDS011;9102;53.548;9.926;2023-10-09T12:15:49;5.38;;;4.13;;
17953;SDS011;9102;53.548;9.926;2023-10-09T12:18:17;5.90;;;4.15;;
17953;SDS011;9102;53.548;9.926;2023-10-09T12:20:44;4.78;;;3.40;;
17953;SDS011;9102;53.548;9.926;2023-10-09T12:23:15;6.82;;;4.20;;
17953;SDS011;9102;53.548;9.926;2023-10-09T12:25:43;9.20;;;4.88;;
17953;SDS011;9102;53.548;9.926;2023-10-09T12:28:11;6.45;;;4.38;;
17953;SDS011;9102;53.548;9.926;2023-10-09T12:30:40;7.65;;;4.55;;
17953;SDS011;9102;53.548;9.926;2023-10-09T12:33:07;5.10;;;4.05;;
17953;SDS011;9102;53.548;9.926;2023-10-09T12:35:38;6.63;;;4.38;;
17953;SDS011;9102;53.548;9.926;2023-10-09T12:38:05;7.28;;;5.07;;
17953;SDS011;9102;53.548;9.926;2023-10-09T12:40:35;8.38;;;5.20;;
17953;SDS011;9102;53.548;9.926;2023-10-09T12:43:05;8.95;;;4.88;;
17953;SDS011;9102;53.548;9.926;2023-10-09T12:45:41;8.15;;;4.85;;
17953;SDS011;9102;53.548;9.926;2023-10-09T12:48:10;8.43;;;5.25;;
17953;SDS011;9102;53.548;9.926;2023-10-09T12:50:37;8.27;;;5.60;;
17953;SDS011;9102;53.548;9.926;2023-10-09T12:53:07;9.55;;;5.00;;
17953;SDS011;9102;53.548;9.926;2023-10-09T12:55:35;11.43;;;6.70;;
17953;SDS011;9102;53.548;9.926;2023-10-09T12:58:05;10.45;;;6.35;;
17953;SDS011;9102;53.548;9.926;2023-10-09T13:00:33;10.80;;;6.40;;
17953;SDS011;9102;53.548;9.926;2023-10-09T13:03:04;13.65;;;7.22;;
17953;SDS011;9102;53.548;9.926;2023-10-09T13:05:42;11.73;;;7.28;;
17953;SDS011;9102;53.548;9.926;2023-10-09T13:08:19;17.10;;;8.13;;
17953;SDS011;9102;53.548;9.926;2023-10-09T13:10:48;9.02;;;6.38;;
17953;SDS011;9102;53.548;9.926;2023-10-09T13:13:27;10.25;;;6.07;;
17953;SDS011;9102;53.548;9.926;2023-10-09T13:16:05;9.43;;;5.60;;
17953;SDS011;9102;53.548;9.926;2023-10-09T13:18:34;11.05;;;7.07;;
17953;SDS011;9102;53.548;9.926;2023-10-09T13:21:02;10.52;;;6.75;;
17953;SDS011;9102;53.548;9.926;2023-10-09T13:23:30;15.18;;;10.90;;
17953;SDS011;9102;53.548;9.926;2023-10-09T13:26:04;11.85;;;6.72;;
17953;SDS011;9102;53.548;9.926;2023-10-09T13:28:43;9.95;;;5.75;;
17953;SDS011;9102;53.548;9.926;2023-10-09T13:31:13;10.27;;;5.85;;
17953;SDS011;9102;53.548;9.926;2023-10-09T13:33:42;7.70;;;5.43;;
17953;SDS011;9102;53.548;9.926;2023-10-09T13:36:09;10.30;;;6.78;;
17953;SDS011;9102;53.548;9.926;2023-10-09T13:38:44;15.43;;;6.82;;
17953;SDS011;9102;53.548;9.926;2023-10-09T13:41:11;11.63;;;7.38;;
17953;SDS011;9102;53.548;9.926;2023-10-09T13:43:39;9.75;;;6.82;;
17953;SDS011;9102;53.548;9.926;2023-10-09T13:46:08;13.05;;;7.25;;
17953;SDS011;9102;53.548;9.926;2023-10-09T13:48:36;12.15;;;7.32;;
17953;SDS011;9102;53.548;9.926;2023-10-09T13:51:07;11.25;;;7.22;;
17953;SDS011;9102;53.548;9.926;2023-10-09T13:53:39;8.98;;;6.43;;
17953;SDS011;9102;53.548;9.926;2023-10-09T13:56:10;12.20;;;6.72;;
17953;SDS011;9102;53.548;9.926;2023-10-09T13:58:39;14.65;;;7.68;;
17953;SDS011;9102;53.548;9.926;2023-10-09T14:01:08;11.13;;;8.18;;
17953;SDS011;9102;53.548;9.926;2023-10-09T14:03:34;13.10;;;7.88;;
17953;SDS011;9102;53.548;9.926;2023-10-09T14:06:03;11.35;;;7.95;;
17953;SDS011;9102;53.548;9.926;2023-10-09T14:08:38;15.10;;;8.52;;
17953;SDS011;9102;53.548;9.926;2023-10-09T14:11:07;9.68;;;7.00;;
17953;SDS011;9102;53.548;9.926;2023-10-09T14:13:38;10.15;;;7.10;;
17953;SDS011;9102;53.548;9.926;2023-10-09T14:16:05;12.77;;;8.80;;
17953;SDS011;9102;53.548;9.926;2023-10-09T14:18:46;13.25;;;8.32;;
17953;SDS011;9102;53.548;9.926;2023-10-09T14:21:12;11.90;;;8.23;;
17953;SDS011;9102;53.548;9.926;2023-10-09T14:23:42;10.32;;;7.72;;
17953;SDS011;9102;53.548;9.926;2023-10-09T14:26:11;11.35;;;8.05;;
17953;SDS011;9102;53.548;9.926;2023-10-09T14:28:39;14.85;;;9.00;;
17953;SDS011;9102;53.548;9.926;2023-10-09T14:31:07;13.10;;;8.25;;
17953;SDS011;9102;53.548;9.926;2023-10-09T14:33:37;13.88;;;8.65;;
17953;SDS011;9102;53.548;9.926;2023-10-09T14:36:05;11.95;;;8.80;;
17953;SDS011;9102;53.548;9.926;2023-10-09T14:38:32;13.63;;;8.90;;
17953;SDS011;9102;53.548;9.926;2023-10-09T14:41:05;13.05;;;8.77;;
17953;SDS011;9102;53.548;9.926;2023-10-09T14:43:36;16.48;;;9.07;;
17953;SDS011;9102;53.548;9.926;2023-10-09T14:46:03;10.15;;;7.32;;
17953;SDS011;9102;53.548;9.926;2023-10-09T14:48:35;15.30;;;9.05;;
17953;SDS011;9102;53.548;9.926;2023-10-09T14:51:03;10.73;;;7.40;;
17953;SDS011;9102;53.548;9.926;2023-10-09T14:53:31;10.05;;;7.43;;
17953;SDS011;9102;53.548;9.926;2023-10-09T14:55:59;12.07;;;7.68;;
17953;SDS011;9102;53.548;9.926;2023-10-09T14:58:29;13.30;;;7.43;;
17953;SDS011;9102;53.548;9.926;2023-10-09T15:01:06;10.07;;;7.88;;
17953;SDS011;9102;53.548;9.926;2023-10-09T15:03:37;13.73;;;8.27;;
17953;SDS011;9102;53.548;9.926;2023-10-09T15:06:04;12.65;;;8.60;;
17953;SDS011;9102;53.548;9.926;2023-10-09T15:08:34;11.88;;;7.30;;
17953;SDS011;9102;53.548;9.926;2023-10-09T15:11:01;10.18;;;7.72;;
17953;SDS011;9102;53.548;9.926;2023-10-09T15:13:27;14.35;;;9.13;;
17953;SDS011;9102;53.548;9.926;2023-10-09T15:15:55;12.65;;;8.75;;
17953;SDS011;9102;53.548;9.926;2023-10-09T15:18:24;14.18;;;8.88;;
17953;SDS011;9102;53.548;9.926;2023-10-09T15:20:50;13.50;;;8.80;;
17953;SDS011;9102;53.548;9.926;2023-10-09T15:23:17;13.35;;;8.80;;
17953;SDS011;9102;53.548;9.926;2023-10-09T15:25:45;13.55;;;8.82;;
17953;SDS011;9102;53.548;9.926;2023-10-09T15:28:16;13.20;;;9.38;;
17953;SDS011;9102;53.548;9.926;2023-10-09T15:30:45;13.38;;;9.02;;
17953;SDS011;9102;53.548;9.926;2023-10-09T15:33:13;13.20;;;8.63;;
17953;SDS011;9102;53.548;9.926;2023-10-09T15:35:41;17.55;;;11.65;;
17953;SDS011;9102;53.548;9.926;2023-10-09T15:38:10;15.77;;;9.77;;
17953;SDS011;9102;53.548;9.926;2023-10-09T15:40:38;16.00;;;8.93;;
17953;SDS011;9102;53.548;9.926;2023-10-09T15:43:08;9.75;;;6.97;;
17953;SDS011;9102;53.548;9.926;2023-10-09T15:45:40;10.40;;;5.35;;